sensor_id;sensor_type;location;lat;lon;timestamp;noise_LAeq;noise_LA_min;noise_LA_max;noise_LA01;noise_LA95
71628;Laerm;59477;52.374;9.916;2023-07-16T00:00:27;45.38;39.19;53.01;;
71628;Laerm;59477;52.374;9.916;2023-07-16T00:02:27;45.24;40.06;50.27;;
71628;Laerm;59477;52.374;9.916;2023-07-16T00:04:28;44.86;39.50;49.21;;
71628;Laerm;59477;52.374;9.916;2023-07-16T00:06:28;45.69;38.55;53.59;;
71628;Laerm;59477;52.374;9.916;2023-07-16T00:08:29;45.29;39.12;55.66;;
71628;Laerm;59477;52.374;9.916;2023-07-16T00:10:30;44.61;38.96;49.04;;
71628;Laerm;59477;52.374;9.916;2023-07-16T00:12:33;49.80;39.04;60.47;;
71628;Laerm;59477;52.374;9.916;2023-07-16T00:14:33;43.93;37.97;49.51;;
71628;Laerm;59477;52.374;9.916;2023-07-16T00:16:34;44.04;38.54;48.28;;
71628;Laerm;59477;52.374;9.916;2023-07-16T00:18:34;44.57;38.97;49.11;;
71628;Laerm;59477;52.374;9.916;2023-07-16T00:20:35;44.36;39.42;48.34;;
71628;Laerm;59477;52.374;9.916;2023-07-16T00:22:36;45.32;38.95;50.46;;
71628;Laerm;59477;52.374;9.916;2023-07-16T00:24:39;44.23;38.27;47.70;;
71628;Laerm;59477;52.374;9.916;2023-07-16T00:26:39;44.75;38.19;51.84;;
71628;Laerm;59477;52.374;9.916;2023-07-16T00:28:40;44.05;37.13;48.35;;
71628;Laerm;59477;52.374;9.916;2023-07-16T00:30:40;44.02;37.65;56.13;;
71628;Laerm;59477;52.374;9.916;2023-07-16T00:32:41;43.41;35.79;47.47;;
71628;Laerm;59477;52.374;9.916;2023-07-16T00:34:41;46.13;36.58;54.90;;
71628;Laerm;59477;52.374;9.916;2023-07-16T00:36:42;46.42;37.62;52.61;;
71628;Laerm;59477;52.374;9.916;2023-07-16T00:38:44;38.69;33.95;46.77;;
71628;Laerm;59477;52.374;9.916;2023-07-16T00:40:46;37.34;34.55;43.56;;
71628;Laerm;59477;52.374;9.916;2023-07-16T00:42:47;41.31;34.32;51.26;;
71628;Laerm;59477;52.374;9.916;2023-07-16T00:44:47;43.14;33.81;54.18;;
71628;Laerm;59477;52.374;9.916;2023-07-16T00:46:48;36.61;33.48;40.14;;
71628;Laerm;59477;52.374;9.916;2023-07-16T00:48:50;40.58;33.47;67.83;;
71628;Laerm;59477;52.374;9.916;2023-07-16T00:50:51;53.18;40.95;79.68;;
71628;Laerm;59477;52.374;9.916;2023-07-16T00:52:52;50.12;41.34;76.56;;
71628;Laerm;59477;52.374;9.916;2023-07-16T00:54:53;43.52;35.45;64.66;;
71628;Laerm;59477;52.374;9.916;2023-07-16T00:56:54;40.47;33.91;51.84;;
71628;Laerm;59477;52.374;9.916;2023-07-16T00:58:54;46.53;38.83;55.61;;
71628;Laerm;59477;52.374;9.916;2023-07-16T01:00:55;46.51;34.37;58.53;;
71628;Laerm;59477;52.374;9.916;2023-07-16T01:02:56;46.57;34.31;57.26;;
71628;Laerm;59477;52.374;9.916;2023-07-16T01:04:56;44.93;35.56;57.37;;
71628;Laerm;59477;52.374;9.916;2023-07-16T01:06:57;38.86;34.81;45.99;;
71628;Laerm;59477;52.374;9.916;2023-07-16T01:09:02;39.27;34.63;47.81;;
71628;Laerm;59477;52.374;9.916;2023-07-16T01:11:04;39.37;34.85;47.50;;
71628;Laerm;59477;52.374;9.916;2023-07-16T01:13:05;44.44;36.89;52.90;;
71628;Laerm;59477;52.374;9.916;2023-07-16T01:15:07;41.09;36.68;46.73;;
71628;Laerm;59477;52.374;9.916;2023-07-16T01:17:07;40.23;35.23;48.06;;
71628;Laerm;59477;52.374;9.916;2023-07-16T01:19:08;42.79;37.20;49.94;;
71628;Laerm;59477;52.374;9.916;2023-07-16T01:21:09;42.22;36.68;51.62;;
71628;Laerm;59477;52.374;9.916;2023-07-16T01:30:03;40.54;35.93;54.88;;
71628;Laerm;59477;52.374;9.916;2023-07-16T01:31:56;39.01;35.82;53.49;;
71628;Laerm;59477;52.374;9.916;2023-07-16T01:34:02;49.68;36.24;58.90;;
71628;Laerm;59477;52.374;9.916;2023-07-16T01:36:04;43.83;37.59;58.08;;
71628;Laerm;59477;52.374;9.916;2023-07-16T01:38:05;54.27;38.11;63.63;;
71628;Laerm;59477;52.374;9.916;2023-07-16T01:40:06;45.32;37.49;68.69;;
71628;Laerm;59477;52.374;9.916;2023-07-16T01:42:09;44.86;37.30;61.61;;
71628;Laerm;59477;52.374;9.916;2023-07-16T01:44:09;41.35;37.35;62.22;;
71628;Laerm;59477;52.374;9.916;2023-07-16T01:46:10;39.95;36.44;53.08;;
71628;Laerm;59477;52.374;9.916;2023-07-16T01:48:29;43.89;36.51;58.79;;
71628;Laerm;59477;52.374;9.916;2023-07-16T01:50:30;46.17;36.20;58.29;;
71628;Laerm;59477;52.374;9.916;2023-07-16T01:52:31;39.67;35.54;48.49;;
71628;Laerm;59477;52.374;9.916;2023-07-16T01:54:31;39.19;35.77;50.28;;
71628;Laerm;59477;52.374;9.916;2023-07-16T01:56:32;40.43;35.13;46.46;;
71628;Laerm;59477;52.374;9.916;2023-07-16T01:58:33;40.30;36.93;47.81;;
71628;Laerm;59477;52.374;9.916;2023-07-16T02:00:34;42.69;37.48;50.51;;
71628;Laerm;59477;52.374;9.916;2023-07-16T02:02:36;49.61;36.29;70.08;;
71628;Laerm;59477;52.374;9.916;2023-07-16T02:04:36;45.27;39.04;50.66;;
71628;Laerm;59477;52.374;9.916;2023-07-16T02:06:37;41.90;35.50;52.52;;
71628;Laerm;59477;52.374;9.916;2023-07-16T02:08:38;38.72;35.11;46.44;;
71628;Laerm;59477;52.374;9.916;2023-07-16T02:10:38;39.30;35.57;55.90;;
71628;Laerm;59477;52.374;9.916;2023-07-16T02:12:39;47.34;35.61;56.41;;
71628;Laerm;59477;52.374;9.916;2023-07-16T02:14:41;40.03;36.33;47.77;;
71628;Laerm;59477;52.374;9.916;2023-07-16T02:16:44;39.86;36.01;46.72;;
71628;Laerm;59477;52.374;9.916;2023-07-16T02:18:44;39.13;34.77;45.08;;
71628;Laerm;59477;52.374;9.916;2023-07-16T02:20:45;48.55;36.00;56.72;;
71628;Laerm;59477;52.374;9.916;2023-07-16T02:22:45;40.90;36.32;48.48;;
71628;Laerm;59477;52.374;9.916;2023-07-16T02:24:46;40.63;36.39;49.01;;
71628;Laerm;59477;52.374;9.916;2023-07-16T02:26:46;44.26;36.45;58.51;;
71628;Laerm;59477;52.374;9.916;2023-07-16T02:28:47;42.53;35.48;51.45;;
71628;Laerm;59477;52.374;9.916;2023-07-16T02:30:48;39.30;34.39;50.56;;
71628;Laerm;59477;52.374;9.916;2023-07-16T02:32:49;40.95;35.92;50.18;;
71628;Laerm;59477;52.374;9.916;2023-07-16T02:34:50;40.46;35.75;49.95;;
71628;Laerm;59477;52.374;9.916;2023-07-16T02:36:50;40.33;34.96;53.18;;
71628;Laerm;59477;52.374;9.916;2023-07-16T02:38:51;42.41;36.20;55.14;;
71628;Laerm;59477;52.374;9.916;2023-07-16T02:40:51;41.02;35.02;53.03;;
71628;Laerm;59477;52.374;9.916;2023-07-16T02:42:52;39.59;34.36;51.90;;
71628;Laerm;59477;52.374;9.916;2023-07-16T02:44:53;42.13;34.98;59.70;;
71628;Laerm;59477;52.374;9.916;2023-07-16T02:46:53;39.43;35.14;50.39;;
71628;Laerm;59477;52.374;9.916;2023-07-16T02:48:54;43.08;36.19;68.78;;
71628;Laerm;59477;52.374;9.916;2023-07-16T02:50:54;38.07;34.46;51.31;;
71628;Laerm;59477;52.374;9.916;2023-07-16T02:52:55;38.87;34.77;53.49;;
71628;Laerm;59477;52.374;9.916;2023-07-16T02:54:55;37.80;34.60;49.07;;
71628;Laerm;59477;52.374;9.916;2023-07-16T02:56:56;38.80;34.73;56.36;;
71628;Laerm;59477;52.374;9.916;2023-07-16T02:58:57;41.45;35.42;54.47;;
71628;Laerm;59477;52.374;9.916;2023-07-16T03:00:57;41.20;36.30;53.27;;
71628;Laerm;59477;52.374;9.916;2023-07-16T03:02:58;39.31;33.80;51.47;;
71628;Laerm;59477;52.374;9.916;2023-07-16T03:04:59;38.11;34.60;44.75;;
71628;Laerm;59477;52.374;9.916;2023-07-16T03:07:00;39.04;34.44;47.46;;
71628;Laerm;59477;52.374;9.916;2023-07-16T03:09:00;39.53;35.24;47.12;;
71628;Laerm;59477;52.374;9.916;2023-07-16T03:11:01;38.15;34.98;44.95;;
71628;Laerm;59477;52.374;9.916;2023-07-16T03:13:01;38.14;34.65;44.64;;
71628;Laerm;59477;52.374;9.916;2023-07-16T03:15:02;38.58;34.99;46.07;;
71628;Laerm;59477;52.374;9.916;2023-07-16T03:17:03;43.72;35.23;53.52;;
71628;Laerm;59477;52.374;9.916;2023-07-16T03:19:03;44.25;36.93;50.01;;
71628;Laerm;59477;52.374;9.916;2023-07-16T03:21:04;40.29;35.45;54.53;;
71628;Laerm;59477;52.374;9.916;2023-07-16T03:23:05;41.47;35.54;55.11;;
71628;Laerm;59477;52.374;9.916;2023-07-16T03:25:06;42.51;34.79;57.17;;
71628;Laerm;59477;52.374;9.916;2023-07-16T03:27:06;43.23;36.48;56.99;;
71628;Laerm;59477;52.374;9.916;2023-07-16T03:29:07;41.83;36.39;51.37;;
71628;Laerm;59477;52.374;9.916;2023-07-16T03:31:08;40.98;36.21;47.45;;
71628;Laerm;59477;52.374;9.916;2023-07-16T03:33:08;41.21;36.07;54.31;;
71628;Laerm;59477;52.374;9.916;2023-07-16T03:35:09;41.20;35.95;54.22;;
71628;Laerm;59477;52.374;9.916;2023-07-16T03:37:10;40.08;36.07;45.06;;
71628;Laerm;59477;52.374;9.916;2023-07-16T03:39:11;45.99;36.85;55.04;;
71628;Laerm;59477;52.374;9.916;2023-07-16T03:41:12;39.81;34.56;52.15;;
71628;Laerm;59477;52.374;9.916;2023-07-16T03:43:12;38.26;34.02;46.74;;
71628;Laerm;59477;52.374;9.916;2023-07-16T03:45:13;39.41;34.62;53.41;;
71628;Laerm;59477;52.374;9.916;2023-07-16T03:47:15;39.99;34.58;54.05;;
71628;Laerm;59477;52.374;9.916;2023-07-16T03:49:16;39.47;34.19;51.17;;
71628;Laerm;59477;52.374;9.916;2023-07-16T03:51:17;39.27;34.43;55.53;;
71628;Laerm;59477;52.374;9.916;2023-07-16T03:53:17;37.85;33.61;47.55;;
71628;Laerm;59477;52.374;9.916;2023-07-16T03:55:18;38.28;33.43;49.82;;
71628;Laerm;59477;52.374;9.916;2023-07-16T03:57:18;38.60;33.56;59.84;;
71628;Laerm;59477;52.374;9.916;2023-07-16T03:59:19;38.65;33.67;48.73;;
71628;Laerm;59477;52.374;9.916;2023-07-16T04:01:20;42.91;34.33;61.76;;
71628;Laerm;59477;52.374;9.916;2023-07-16T04:03:20;38.53;32.98;56.14;;
71628;Laerm;59477;52.374;9.916;2023-07-16T04:05:21;43.96;32.69;62.24;;
71628;Laerm;59477;52.374;9.916;2023-07-16T04:07:21;45.29;33.05;63.35;;
71628;Laerm;59477;52.374;9.916;2023-07-16T04:09:22;40.66;32.47;53.02;;
71628;Laerm;59477;52.374;9.916;2023-07-16T04:11:23;39.27;33.10;51.42;;
71628;Laerm;59477;52.374;9.916;2023-07-16T04:13:23;38.57;32.84;52.12;;
71628;Laerm;59477;52.374;9.916;2023-07-16T04:15:24;38.90;32.92;54.42;;
71628;Laerm;59477;52.374;9.916;2023-07-16T04:17:25;40.01;33.51;56.21;;
71628;Laerm;59477;52.374;9.916;2023-07-16T04:19:25;39.08;33.09;54.82;;
71628;Laerm;59477;52.374;9.916;2023-07-16T04:21:26;38.39;34.16;53.06;;
71628;Laerm;59477;52.374;9.916;2023-07-16T04:23:26;38.39;33.75;54.15;;
71628;Laerm;59477;52.374;9.916;2023-07-16T04:25:27;39.85;34.54;55.27;;
71628;Laerm;59477;52.374;9.916;2023-07-16T04:27:28;39.64;34.43;58.54;;
71628;Laerm;59477;52.374;9.916;2023-07-16T04:29:28;42.24;36.16;57.63;;
71628;Laerm;59477;52.374;9.916;2023-07-16T04:31:29;37.80;34.58;44.49;;
71628;Laerm;59477;52.374;9.916;2023-07-16T04:33:29;41.55;34.45;55.59;;
71628;Laerm;59477;52.374;9.916;2023-07-16T04:35:30;42.25;35.58;52.93;;
71628;Laerm;59477;52.374;9.916;2023-07-16T04:37:31;38.44;34.07;55.46;;
71628;Laerm;59477;52.374;9.916;2023-07-16T04:39:31;39.27;35.47;53.04;;
71628;Laerm;59477;52.374;9.916;2023-07-16T04:41:32;40.55;35.57;49.34;;
71628;Laerm;59477;52.374;9.916;2023-07-16T04:43:32;41.88;36.40;58.46;;
71628;Laerm;59477;52.374;9.916;2023-07-16T04:45:33;45.41;35.80;67.41;;
71628;Laerm;59477;52.374;9.916;2023-07-16T04:47:34;39.83;34.72;55.41;;
71628;Laerm;59477;52.374;9.916;2023-07-16T04:49:34;40.44;35.82;50.44;;
71628;Laerm;59477;52.374;9.916;2023-07-16T04:51:35;43.06;36.96;54.97;;
71628;Laerm;59477;52.374;9.916;2023-07-16T04:53:36;41.88;36.28;53.05;;
71628;Laerm;59477;52.374;9.916;2023-07-16T04:55:37;49.13;36.47;68.49;;
71628;Laerm;59477;52.374;9.916;2023-07-16T04:57:37;45.07;36.82;65.74;;
71628;Laerm;59477;52.374;9.916;2023-07-16T04:59:38;42.40;36.56;57.49;;
71628;Laerm;59477;52.374;9.916;2023-07-16T05:01:39;39.90;36.01;48.30;;
71628;Laerm;59477;52.374;9.916;2023-07-16T05:03:39;39.34;35.20;43.77;;
71628;Laerm;59477;52.374;9.916;2023-07-16T05:05:40;40.34;36.14;48.71;;
71628;Laerm;59477;52.374;9.916;2023-07-16T05:07:41;40.78;36.69;51.53;;
71628;Laerm;59477;52.374;9.916;2023-07-16T05:09:42;39.98;36.17;46.79;;
71628;Laerm;59477;52.374;9.916;2023-07-16T05:11:42;39.84;35.88;45.09;;
71628;Laerm;59477;52.374;9.916;2023-07-16T05:13:43;39.59;34.82;59.08;;
71628;Laerm;59477;52.374;9.916;2023-07-16T05:15:47;39.84;35.77;44.94;;
71628;Laerm;59477;52.374;9.916;2023-07-16T05:17:47;40.55;36.02;52.32;;
71628;Laerm;59477;52.374;9.916;2023-07-16T05:19:48;42.68;37.42;52.83;;
71628;Laerm;59477;52.374;9.916;2023-07-16T05:21:49;46.22;36.71;57.07;;
71628;Laerm;59477;52.374;9.916;2023-07-16T05:23:52;40.43;36.14;52.00;;
71628;Laerm;59477;52.374;9.916;2023-07-16T05:25:52;41.70;35.51;58.71;;
71628;Laerm;59477;52.374;9.916;2023-07-16T05:27:53;42.04;34.07;57.57;;
71628;Laerm;59477;52.374;9.916;2023-07-16T05:29:53;39.44;35.78;50.32;;
71628;Laerm;59477;52.374;9.916;2023-07-16T05:31:54;39.70;35.64;47.42;;
71628;Laerm;59477;52.374;9.916;2023-07-16T05:33:54;47.67;37.48;56.01;;
71628;Laerm;59477;52.374;9.916;2023-07-16T05:35:55;42.02;37.77;49.83;;
71628;Laerm;59477;52.374;9.916;2023-07-16T05:37:56;44.28;38.66;56.53;;
71628;Laerm;59477;52.374;9.916;2023-07-16T05:39:56;45.20;39.35;54.38;;
71628;Laerm;59477;52.374;9.916;2023-07-16T05:41:57;45.37;38.20;55.59;;
71628;Laerm;59477;52.374;9.916;2023-07-16T05:43:57;44.00;38.87;50.45;;
71628;Laerm;59477;52.374;9.916;2023-07-16T05:45:58;45.50;37.54;53.77;;
71628;Laerm;59477;52.374;9.916;2023-07-16T05:47:59;44.59;39.45;52.27;;
71628;Laerm;59477;52.374;9.916;2023-07-16T05:49:59;43.56;38.26;51.69;;
71628;Laerm;59477;52.374;9.916;2023-07-16T05:52:00;45.33;37.50;54.78;;
71628;Laerm;59477;52.374;9.916;2023-07-16T05:54:01;42.52;38.32;47.33;;
71628;Laerm;59477;52.374;9.916;2023-07-16T05:56:02;44.66;37.54;52.92;;
71628;Laerm;59477;52.374;9.916;2023-07-16T05:58:03;55.29;36.66;74.72;;
71628;Laerm;59477;52.374;9.916;2023-07-16T06:00:04;50.71;40.13;58.55;;
71628;Laerm;59477;52.374;9.916;2023-07-16T06:02:05;42.65;36.97;55.56;;
71628;Laerm;59477;52.374;9.916;2023-07-16T06:04:10;47.39;38.01;68.67;;
71628;Laerm;59477;52.374;9.916;2023-07-16T06:06:10;46.32;38.45;52.56;;
71628;Laerm;59477;52.374;9.916;2023-07-16T06:08:10;48.69;40.25;58.48;;
71628;Laerm;59477;52.374;9.916;2023-07-16T06:10:11;45.13;38.01;51.31;;
71628;Laerm;59477;52.374;9.916;2023-07-16T06:12:11;46.93;40.04;63.92;;
71628;Laerm;59477;52.374;9.916;2023-07-16T06:14:12;44.59;38.82;59.78;;
71628;Laerm;59477;52.374;9.916;2023-07-16T06:16:12;45.42;39.54;51.56;;
71628;Laerm;59477;52.374;9.916;2023-07-16T06:18:12;48.75;39.07;67.75;;
71628;Laerm;59477;52.374;9.916;2023-07-16T06:20:12;44.46;38.81;55.67;;
71628;Laerm;59477;52.374;9.916;2023-07-16T06:22:12;46.55;38.37;60.12;;
71628;Laerm;59477;52.374;9.916;2023-07-16T06:24:13;47.63;38.65;62.57;;
71628;Laerm;59477;52.374;9.916;2023-07-16T06:26:13;46.31;39.72;59.78;;
71628;Laerm;59477;52.374;9.916;2023-07-16T06:28:14;44.81;38.57;68.71;;
71628;Laerm;59477;52.374;9.916;2023-07-16T06:30:14;46.61;38.64;56.57;;
71628;Laerm;59477;52.374;9.916;2023-07-16T06:32:15;43.67;38.42;51.38;;
71628;Laerm;59477;52.374;9.916;2023-07-16T06:34:15;53.05;42.61;73.52;;
71628;Laerm;59477;52.374;9.916;2023-07-16T06:36:15;45.40;39.01;56.58;;
71628;Laerm;59477;52.374;9.916;2023-07-16T06:38:15;49.26;40.61;62.94;;
71628;Laerm;59477;52.374;9.916;2023-07-16T06:40:16;52.18;43.73;63.15;;
71628;Laerm;59477;52.374;9.916;2023-07-16T06:42:16;51.89;40.53;64.79;;
71628;Laerm;59477;52.374;9.916;2023-07-16T06:44:16;51.16;40.43;60.93;;
71628;Laerm;59477;52.374;9.916;2023-07-16T06:46:16;50.98;37.43;67.04;;
71628;Laerm;59477;52.374;9.916;2023-07-16T06:48:17;52.50;40.84;79.27;;
71628;Laerm;59477;52.374;9.916;2023-07-16T06:50:18;48.07;39.05;60.20;;
71628;Laerm;59477;52.374;9.916;2023-07-16T06:52:21;45.17;38.21;52.60;;
71628;Laerm;59477;52.374;9.916;2023-07-16T06:54:22;48.95;38.82;67.62;;
71628;Laerm;59477;52.374;9.916;2023-07-16T06:56:23;53.23;37.65;75.61;;
71628;Laerm;59477;52.374;9.916;2023-07-16T06:58:32;46.70;38.76;63.88;;
71628;Laerm;59477;52.374;9.916;2023-07-16T07:00:35;51.06;39.55;65.71;;
71628;Laerm;59477;52.374;9.916;2023-07-16T07:02:36;47.47;37.93;65.84;;
71628;Laerm;59477;52.374;9.916;2023-07-16T07:04:36;48.51;40.62;65.95;;
71628;Laerm;59477;52.374;9.916;2023-07-16T07:06:36;44.99;36.42;67.54;;
71628;Laerm;59477;52.374;9.916;2023-07-16T07:08:37;46.75;36.90;65.35;;
71628;Laerm;59477;52.374;9.916;2023-07-16T07:10:37;44.31;37.07;69.54;;
71628;Laerm;59477;52.374;9.916;2023-07-16T07:12:39;45.71;36.92;60.35;;
71628;Laerm;59477;52.374;9.916;2023-07-16T07:14:40;47.98;37.03;58.18;;
71628;Laerm;59477;52.374;9.916;2023-07-16T07:16:40;42.84;36.13;60.00;;
71628;Laerm;59477;52.374;9.916;2023-07-16T07:18:40;43.46;35.81;55.88;;
71628;Laerm;59477;52.374;9.916;2023-07-16T07:20:40;40.67;36.09;47.86;;
71628;Laerm;59477;52.374;9.916;2023-07-16T07:22:41;44.98;35.63;66.93;;
71628;Laerm;59477;52.374;9.916;2023-07-16T07:24:41;46.30;37.99;61.61;;
71628;Laerm;59477;52.374;9.916;2023-07-16T07:26:41;47.90;36.96;60.52;;
71628;Laerm;59477;52.374;9.916;2023-07-16T07:28:42;54.77;38.49;78.42;;
71628;Laerm;59477;52.374;9.916;2023-07-16T07:30:42;47.57;37.47;71.58;;
71628;Laerm;59477;52.374;9.916;2023-07-16T07:32:42;44.88;38.07;59.87;;
71628;Laerm;59477;52.374;9.916;2023-07-16T07:34:42;57.89;40.54;82.51;;
71628;Laerm;59477;52.374;9.916;2023-07-16T07:36:42;45.35;37.93;60.14;;
71628;Laerm;59477;52.374;9.916;2023-07-16T07:38:43;52.30;41.58;73.17;;
71628;Laerm;59477;52.374;9.916;2023-07-16T07:40:44;50.52;42.18;63.33;;
71628;Laerm;59477;52.374;9.916;2023-07-16T07:42:44;52.62;44.42;60.09;;
71628;Laerm;59477;52.374;9.916;2023-07-16T07:44:45;51.11;43.90;60.90;;
71628;Laerm;59477;52.374;9.916;2023-07-16T07:46:45;53.06;45.21;64.46;;
71628;Laerm;59477;52.374;9.916;2023-07-16T07:48:45;55.99;47.89;67.26;;
71628;Laerm;59477;52.374;9.916;2023-07-16T07:50:46;53.68;44.67;63.35;;
71628;Laerm;59477;52.374;9.916;2023-07-16T07:52:46;54.79;45.34;64.39;;
71628;Laerm;59477;52.374;9.916;2023-07-16T07:54:46;53.17;44.65;67.49;;
71628;Laerm;59477;52.374;9.916;2023-07-16T07:56:47;54.01;43.84;72.88;;
71628;Laerm;59477;52.374;9.916;2023-07-16T07:58:47;51.79;42.43;62.72;;
71628;Laerm;59477;52.374;9.916;2023-07-16T08:00:47;47.39;40.97;57.16;;
71628;Laerm;59477;52.374;9.916;2023-07-16T08:02:48;51.61;40.51;64.17;;
71628;Laerm;59477;52.374;9.916;2023-07-16T08:04:48;51.14;42.26;65.09;;
71628;Laerm;59477;52.374;9.916;2023-07-16T08:06:48;53.41;44.07;62.17;;
71628;Laerm;59477;52.374;9.916;2023-07-16T08:08:48;50.24;42.29;60.55;;
71628;Laerm;59477;52.374;9.916;2023-07-16T08:10:49;52.67;44.15;64.05;;
71628;Laerm;59477;52.374;9.916;2023-07-16T08:12:49;53.22;42.72;64.29;;
71628;Laerm;59477;52.374;9.916;2023-07-16T08:14:49;45.78;40.00;63.30;;
71628;Laerm;59477;52.374;9.916;2023-07-16T08:16:49;45.36;40.38;54.35;;
71628;Laerm;59477;52.374;9.916;2023-07-16T08:18:50;44.73;39.71;51.08;;
71628;Laerm;59477;52.374;9.916;2023-07-16T08:20:50;51.43;45.39;61.92;;
71628;Laerm;59477;52.374;9.916;2023-07-16T08:22:50;52.69;44.82;60.32;;
71628;Laerm;59477;52.374;9.916;2023-07-16T08:24:51;52.62;44.65;68.79;;
71628;Laerm;59477;52.374;9.916;2023-07-16T08:26:51;48.63;43.82;54.43;;
71628;Laerm;59477;52.374;9.916;2023-07-16T08:28:51;51.82;42.15;64.57;;
71628;Laerm;59477;52.374;9.916;2023-07-16T08:30:52;54.40;41.92;63.45;;
71628;Laerm;59477;52.374;9.916;2023-07-16T08:32:53;51.97;44.01;59.26;;
71628;Laerm;59477;52.374;9.916;2023-07-16T08:34:53;52.60;43.23;65.51;;
71628;Laerm;59477;52.374;9.916;2023-07-16T08:36:53;53.99;45.96;64.99;;
71628;Laerm;59477;52.374;9.916;2023-07-16T08:38:53;55.97;45.62;75.72;;
71628;Laerm;59477;52.374;9.916;2023-07-16T08:40:54;53.99;42.70;68.93;;
71628;Laerm;59477;52.374;9.916;2023-07-16T08:42:54;54.30;43.38;68.72;;
71628;Laerm;59477;52.374;9.916;2023-07-16T08:44:55;53.10;45.24;70.37;;
71628;Laerm;59477;52.374;9.916;2023-07-16T08:46:55;52.12;43.94;63.76;;
71628;Laerm;59477;52.374;9.916;2023-07-16T08:48:56;56.22;42.73;75.33;;
71628;Laerm;59477;52.374;9.916;2023-07-16T08:50:57;48.62;40.92;72.76;;
71628;Laerm;59477;52.374;9.916;2023-07-16T08:52:58;46.46;41.12;62.91;;
71628;Laerm;59477;52.374;9.916;2023-07-16T08:54:59;50.66;41.90;65.33;;
71628;Laerm;59477;52.374;9.916;2023-07-16T08:56:59;51.69;41.69;69.47;;
71628;Laerm;59477;52.374;9.916;2023-07-16T08:59:00;52.77;43.18;69.39;;
71628;Laerm;59477;52.374;9.916;2023-07-16T09:01:00;62.06;45.41;83.00;;
71628;Laerm;59477;52.374;9.916;2023-07-16T09:03:01;52.64;42.75;79.09;;
71628;Laerm;59477;52.374;9.916;2023-07-16T09:05:02;47.08;38.84;61.95;;
71628;Laerm;59477;52.374;9.916;2023-07-16T09:07:02;52.46;41.65;60.96;;
71628;Laerm;59477;52.374;9.916;2023-07-16T09:09:02;46.12;40.10;57.78;;
71628;Laerm;59477;52.374;9.916;2023-07-16T09:11:05;62.26;38.95;87.05;;
71628;Laerm;59477;52.374;9.916;2023-07-16T09:13:10;45.25;38.68;57.87;;
71628;Laerm;59477;52.374;9.916;2023-07-16T09:15:11;47.36;39.78;60.94;;
71628;Laerm;59477;52.374;9.916;2023-07-16T09:17:13;52.60;39.93;82.95;;
71628;Laerm;59477;52.374;9.916;2023-07-16T09:19:13;54.30;39.99;83.67;;
71628;Laerm;59477;52.374;9.916;2023-07-16T09:21:15;62.37;38.46;89.46;;
71628;Laerm;59477;52.374;9.916;2023-07-16T09:23:18;43.16;38.24;57.15;;
71628;Laerm;59477;52.374;9.916;2023-07-16T09:25:19;43.65;38.26;52.81;;
71628;Laerm;59477;52.374;9.916;2023-07-16T09:27:19;45.80;38.98;58.29;;
71628;Laerm;59477;52.374;9.916;2023-07-16T09:29:20;47.03;40.14;54.48;;
71628;Laerm;59477;52.374;9.916;2023-07-16T09:31:20;47.37;39.89;60.75;;
71628;Laerm;59477;52.374;9.916;2023-07-16T09:33:21;47.99;39.01;55.62;;
71628;Laerm;59477;52.374;9.916;2023-07-16T09:35:22;45.45;40.66;50.81;;
71628;Laerm;59477;52.374;9.916;2023-07-16T09:37:23;46.20;39.07;55.77;;
71628;Laerm;59477;52.374;9.916;2023-07-16T09:39:23;46.47;40.01;59.36;;
71628;Laerm;59477;52.374;9.916;2023-07-16T09:41:24;50.29;42.67;58.49;;
71628;Laerm;59477;52.374;9.916;2023-07-16T09:43:25;46.89;38.78;55.70;;
71628;Laerm;59477;52.374;9.916;2023-07-16T09:45:25;51.17;39.81;60.79;;
71628;Laerm;59477;52.374;9.916;2023-07-16T09:47:25;54.28;41.57;76.79;;
71628;Laerm;59477;52.374;9.916;2023-07-16T09:49:28;47.93;39.58;61.70;;
71628;Laerm;59477;52.374;9.916;2023-07-16T09:51:28;49.14;40.41;56.15;;
71628;Laerm;59477;52.374;9.916;2023-07-16T09:53:30;50.59;42.61;57.55;;
71628;Laerm;59477;52.374;9.916;2023-07-16T09:55:32;48.18;39.63;55.33;;
71628;Laerm;59477;52.374;9.916;2023-07-16T09:57:35;45.11;38.84;59.16;;
71628;Laerm;59477;52.374;9.916;2023-07-16T09:59:35;47.61;40.32;64.45;;
71628;Laerm;59477;52.374;9.916;2023-07-16T10:01:39;51.25;41.20;62.24;;
71628;Laerm;59477;52.374;9.916;2023-07-16T10:03:49;51.19;40.56;67.76;;
71628;Laerm;59477;52.374;9.916;2023-07-16T10:05:52;44.39;38.73;52.15;;
71628;Laerm;59477;52.374;9.916;2023-07-16T10:07:57;53.20;40.57;72.34;;
71628;Laerm;59477;52.374;9.916;2023-07-16T10:10:00;54.33;45.83;62.97;;
71628;Laerm;59477;52.374;9.916;2023-07-16T10:12:10;58.17;42.21;76.57;;
71628;Laerm;59477;52.374;9.916;2023-07-16T10:14:11;52.54;42.27;62.23;;
71628;Laerm;59477;52.374;9.916;2023-07-16T10:16:19;46.69;39.24;57.44;;
71628;Laerm;59477;52.374;9.916;2023-07-16T10:18:26;49.85;41.64;71.15;;
71628;Laerm;59477;52.374;9.916;2023-07-16T10:20:34;51.29;39.40;63.65;;
71628;Laerm;59477;52.374;9.916;2023-07-16T10:22:38;47.54;37.98;60.25;;
71628;Laerm;59477;52.374;9.916;2023-07-16T10:24:39;55.01;42.99;67.69;;
71628;Laerm;59477;52.374;9.916;2023-07-16T10:26:39;47.68;40.61;59.58;;
71628;Laerm;59477;52.374;9.916;2023-07-16T10:28:40;53.55;45.54;61.35;;
71628;Laerm;59477;52.374;9.916;2023-07-16T10:30:40;51.15;41.47;60.53;;
71628;Laerm;59477;52.374;9.916;2023-07-16T10:32:40;46.30;41.57;52.56;;
71628;Laerm;59477;52.374;9.916;2023-07-16T10:34:41;49.02;41.22;60.43;;
71628;Laerm;59477;52.374;9.916;2023-07-16T10:36:42;48.18;41.20;58.80;;
71628;Laerm;59477;52.374;9.916;2023-07-16T10:38:42;52.14;42.93;70.76;;
71628;Laerm;59477;52.374;9.916;2023-07-16T10:40:43;55.16;40.24;71.95;;
71628;Laerm;59477;52.374;9.916;2023-07-16T10:42:44;56.68;46.65;65.96;;
71628;Laerm;59477;52.374;9.916;2023-07-16T10:44:50;54.89;46.11;63.97;;
71628;Laerm;59477;52.374;9.916;2023-07-16T10:46:51;52.66;44.51;61.01;;
71628;Laerm;59477;52.374;9.916;2023-07-16T10:48:54;56.12;45.78;79.52;;
71628;Laerm;59477;52.374;9.916;2023-07-16T10:50:54;54.69;41.48;73.69;;
71628;Laerm;59477;52.374;9.916;2023-07-16T10:52:56;52.37;44.16;65.66;;
71628;Laerm;59477;52.374;9.916;2023-07-16T10:54:56;54.34;43.60;67.50;;
71628;Laerm;59477;52.374;9.916;2023-07-16T10:56:57;55.05;45.98;64.85;;
71628;Laerm;59477;52.374;9.916;2023-07-16T10:58:58;53.74;42.14;67.90;;
71628;Laerm;59477;52.374;9.916;2023-07-16T11:00:58;53.30;41.46;64.60;;
71628;Laerm;59477;52.374;9.916;2023-07-16T11:02:58;65.86;40.07;84.32;;
71628;Laerm;59477;52.374;9.916;2023-07-16T11:04:58;50.39;40.55;65.12;;
71628;Laerm;59477;52.374;9.916;2023-07-16T11:07:07;45.24;38.23;61.48;;
71628;Laerm;59477;52.374;9.916;2023-07-16T11:09:08;59.08;41.72;77.04;;
71628;Laerm;59477;52.374;9.916;2023-07-16T11:11:09;49.73;42.21;65.44;;
71628;Laerm;59477;52.374;9.916;2023-07-16T11:13:09;47.60;40.48;56.25;;
71628;Laerm;59477;52.374;9.916;2023-07-16T11:15:09;45.38;38.48;55.51;;
71628;Laerm;59477;52.374;9.916;2023-07-16T11:17:10;45.06;38.99;52.56;;
71628;Laerm;59477;52.374;9.916;2023-07-16T11:19:11;44.51;38.73;63.24;;
71628;Laerm;59477;52.374;9.916;2023-07-16T11:21:11;48.16;38.62;63.99;;
71628;Laerm;59477;52.374;9.916;2023-07-16T11:23:11;49.11;41.37;67.36;;